createdAt,value
2019-06-08T00:00:54.302Z,15.24
2019-06-08T00:01:54.305Z,15.24
2019-06-08T00:02:54.285Z,15.24
2019-06-08T00:03:54.282Z,15.26
2019-06-08T00:04:54.302Z,15.26
2019-06-08T00:05:54.260Z,15.26
2019-06-08T00:06:54.235Z,15.26
2019-06-08T00:07:54.222Z,15.27
2019-06-08T00:08:54.224Z,15.24
2019-06-08T00:09:54.212Z,15.24
2019-06-08T00:10:54.192Z,15.23
2019-06-08T00:11:54.171Z,15.23
2019-06-08T00:12:54.152Z,15.23
2019-06-08T00:13:54.242Z,15.23
2019-06-08T00:14:54.188Z,15.21
2019-06-08T00:15:54.170Z,15.20
2019-06-08T00:16:54.120Z,15.20
2019-06-08T00:17:54.122Z,15.19
2019-06-08T00:18:54.119Z,15.17
2019-06-08T00:19:54.115Z,15.19
2019-06-08T00:20:54.087Z,15.20
2019-06-08T00:21:54.063Z,15.19
2019-06-08T00:22:54.054Z,15.20
2019-06-08T00:23:54.065Z,15.19
2019-06-08T00:24:54.073Z,15.19
2019-06-08T00:25:54.012Z,15.20
2019-06-08T00:26:54.017Z,15.20
2019-06-08T00:27:54.022Z,15.23
2019-06-08T00:28:54.005Z,15.23
2019-06-08T00:29:54.002Z,15.21
2019-06-08T00:30:53.970Z,15.21
2019-06-08T00:31:53.980Z,15.24
2019-06-08T00:32:53.932Z,15.26
2019-06-08T00:33:53.940Z,15.26
2019-06-08T00:34:53.934Z,15.27
2019-06-08T00:35:54.003Z,15.28
2019-06-08T00:36:53.891Z,15.28
2019-06-08T00:37:53.912Z,15.28
2019-06-08T00:38:53.882Z,15.31
2019-06-08T00:39:53.889Z,15.33
2019-06-08T00:40:53.874Z,15.33
2019-06-08T00:41:53.843Z,15.35
2019-06-08T00:42:53.833Z,15.35
2019-06-08T00:43:53.845Z,15.36
2019-06-08T00:44:53.957Z,15.36
2019-06-08T00:45:53.834Z,15.38
2019-06-08T00:46:53.802Z,15.39
2019-06-08T00:47:53.811Z,15.39
2019-06-08T00:48:53.762Z,15.41
2019-06-08T00:49:53.753Z,15.41
2019-06-08T00:50:53.740Z,15.42
2019-06-08T00:51:53.735Z,15.43
2019-06-08T00:52:53.741Z,15.45
2019-06-08T00:53:53.847Z,15.46
2019-06-08T00:54:53.701Z,15.46
2019-06-08T00:55:53.693Z,15.46
2019-06-08T00:56:53.670Z,15.49
2019-06-08T00:57:53.798Z,15.49
2019-06-08T00:58:53.675Z,15.52
2019-06-08T00:59:53.645Z,15.52
2019-06-08T01:00:53.630Z,15.54
2019-06-08T01:01:53.611Z,15.56
2019-06-08T01:02:53.607Z,15.57
2019-06-08T01:03:53.616Z,15.57
2019-06-08T01:04:53.605Z,15.59
2019-06-08T01:05:53.586Z,15.59
2019-06-08T01:06:53.562Z,15.60
2019-06-08T01:07:53.553Z,15.61
2019-06-08T01:08:53.585Z,15.63
2019-06-08T01:09:53.550Z,15.64
2019-06-08T01:10:53.525Z,15.66
2019-06-08T01:11:53.506Z,15.66
2019-06-08T01:12:53.502Z,15.67
2019-06-08T01:13:53.543Z,15.68
2019-06-08T01:14:53.482Z,15.68
2019-06-08T01:15:53.494Z,15.70
2019-06-08T01:16:53.454Z,15.72
2019-06-08T01:18:02.840Z,15.74
2019-06-08T01:18:54.433Z,15.74
2019-06-08T01:19:53.424Z,15.75
2019-06-08T01:20:53.441Z,15.76
2019-06-08T01:21:53.399Z,15.76
2019-06-08T01:22:53.389Z,15.79
2019-06-08T01:23:53.371Z,15.78
2019-06-08T01:24:53.361Z,15.79
2019-06-08T01:25:53.364Z,15.79
2019-06-08T01:26:53.344Z,15.82
2019-06-08T01:27:53.333Z,15.81
2019-06-08T01:28:53.339Z,15.84
2019-06-08T01:29:53.313Z,15.82
2019-06-08T01:30:53.320Z,15.84
2019-06-08T01:31:53.282Z,15.84
2019-06-08T01:32:53.274Z,15.85
2019-06-08T01:33:53.262Z,15.85
2019-06-08T01:34:53.263Z,15.88
2019-06-08T01:35:53.252Z,15.86
2019-06-08T01:36:53.254Z,15.86
2019-06-08T01:37:53.238Z,15.86
2019-06-08T01:38:53.203Z,15.86
2019-06-08T01:39:53.193Z,15.86
2019-06-08T01:40:53.196Z,15.89
2019-06-08T01:41:53.237Z,15.85
2019-06-08T01:42:53.176Z,15.86
2019-06-08T01:43:53.154Z,15.86
2019-06-08T01:44:53.144Z,15.86
2019-06-08T01:45:53.153Z,15.85
2019-06-08T01:46:53.142Z,15.85
2019-06-08T01:47:53.110Z,15.85
2019-06-08T01:48:53.092Z,15.85
2019-06-08T01:49:53.099Z,15.86
2019-06-08T01:50:53.083Z,15.84
2019-06-08T01:51:53.120Z,15.84
2019-06-08T01:52:53.058Z,15.82
2019-06-08T01:53:53.044Z,15.82
2019-06-08T01:54:53.022Z,15.82
2019-06-08T01:55:53.013Z,15.81
2019-06-08T01:56:53.035Z,15.82
2019-06-08T01:57:53.006Z,15.82
2019-06-08T01:58:52.988Z,15.82
2019-06-08T01:59:52.978Z,15.82
2019-06-08T02:00:52.954Z,15.81
2019-06-08T02:01:52.973Z,15.82
2019-06-08T02:02:52.948Z,15.79
2019-06-08T02:03:52.957Z,15.81
2019-06-08T02:04:52.947Z,15.81
2019-06-08T02:05:52.904Z,15.81
2019-06-08T02:06:52.934Z,15.81
2019-06-08T02:07:52.881Z,15.81
2019-06-08T02:08:52.873Z,15.79
2019-06-08T02:09:52.902Z,15.79
2019-06-08T02:10:52.927Z,15.79
2019-06-08T02:11:52.883Z,15.79
2019-06-08T02:12:52.833Z,15.79
2019-06-08T02:13:52.861Z,15.78
2019-06-08T02:14:52.817Z,15.79
2019-06-08T02:15:52.797Z,15.76
2019-06-08T02:16:52.828Z,15.75
2019-06-08T02:17:52.782Z,15.76
2019-06-08T02:18:52.763Z,15.74
2019-06-08T02:19:52.791Z,15.74
2019-06-08T02:20:52.763Z,15.74
2019-06-08T02:21:52.764Z,15.74
2019-06-08T02:22:52.734Z,15.74
2019-06-08T02:23:52.755Z,15.75
2019-06-08T02:24:52.708Z,15.74
2019-06-08T02:25:52.694Z,15.74
2019-06-08T02:26:52.733Z,15.75
2019-06-08T02:27:52.701Z,15.76
2019-06-08T02:28:52.657Z,15.76
2019-06-08T02:29:52.682Z,15.76
2019-06-08T02:30:52.638Z,15.78
2019-06-08T02:31:52.650Z,15.78
2019-06-08T02:32:52.629Z,15.79
2019-06-08T02:33:52.604Z,15.78
2019-06-08T02:34:52.595Z,15.79
2019-06-08T02:35:52.607Z,15.79
2019-06-08T02:36:52.574Z,15.79
2019-06-08T02:37:52.574Z,15.78
2019-06-08T02:38:52.536Z,15.78
2019-06-08T02:39:52.527Z,15.78
2019-06-08T02:40:52.514Z,15.76
2019-06-08T02:41:52.516Z,15.76
2019-06-08T02:42:52.523Z,15.75
2019-06-08T02:43:52.485Z,15.74
2019-06-08T02:44:52.463Z,15.74
2019-06-08T02:45:52.477Z,15.74
2019-06-08T02:46:52.453Z,15.74
2019-06-08T02:47:52.466Z,15.74
2019-06-08T02:49:03.126Z,15.74
2019-06-08T02:49:53.417Z,15.72
2019-06-08T02:50:52.429Z,15.72
2019-06-08T02:51:52.395Z,15.72
2019-06-08T02:52:52.402Z,15.70
2019-06-08T02:53:52.370Z,15.68
2019-06-08T02:54:52.375Z,15.67
2019-06-08T02:55:52.349Z,15.68
2019-06-08T02:56:52.408Z,15.67
2019-06-08T02:57:52.345Z,15.68
2019-06-08T02:58:52.342Z,15.64
2019-06-08T02:59:52.332Z,15.63
2019-06-08T03:00:52.296Z,15.63
2019-06-08T03:01:52.291Z,15.61
2019-06-08T03:02:52.300Z,15.61
2019-06-08T03:03:52.254Z,15.60
2019-06-08T03:04:52.245Z,15.59
2019-06-08T03:05:52.244Z,15.59
2019-06-08T03:06:52.234Z,15.59
2019-06-08T03:07:52.234Z,15.59
2019-06-08T03:08:52.248Z,15.59
2019-06-08T03:09:52.201Z,15.57
2019-06-08T03:10:52.241Z,15.57
2019-06-08T03:11:52.214Z,15.56
2019-06-08T03:12:52.226Z,15.54
2019-06-08T03:13:52.166Z,15.54
2019-06-08T03:14:52.165Z,15.56
2019-06-08T03:15:52.197Z,15.54
2019-06-08T03:16:52.125Z,15.52
2019-06-08T03:17:52.150Z,15.52
2019-06-08T03:18:52.095Z,15.52
2019-06-08T03:19:52.113Z,15.52
2019-06-08T03:20:52.067Z,15.54
2019-06-08T03:21:52.064Z,15.52
2019-06-08T03:22:52.075Z,15.56
2019-06-08T03:23:52.074Z,15.56
2019-06-08T03:24:52.042Z,15.56
2019-06-08T03:25:53.436Z,15.56
2019-06-08T03:26:52.006Z,15.54
2019-06-08T03:27:52.012Z,15.52
2019-06-08T03:28:52.003Z,15.51
2019-06-08T03:29:51.976Z,15.52
2019-06-08T03:30:54.384Z,15.52
2019-06-08T03:31:56.313Z,15.51
2019-06-08T03:32:56.269Z,15.51
2019-06-08T03:33:55.854Z,15.49
2019-06-08T03:34:56.434Z,15.51
2019-06-08T03:35:57.881Z,15.46
2019-06-08T03:36:56.742Z,15.48
2019-06-08T03:37:51.874Z,15.46
2019-06-08T03:38:51.886Z,15.45
2019-06-08T03:39:51.862Z,15.45
2019-06-08T03:40:51.855Z,15.45
2019-06-08T03:41:51.844Z,15.43
2019-06-08T03:42:53.342Z,15.46
2019-06-08T03:43:51.839Z,15.45
2019-06-08T03:44:51.823Z,15.45
2019-06-08T03:45:51.794Z,15.45
2019-06-08T03:46:51.775Z,15.45
2019-06-08T03:47:51.768Z,15.45
2019-06-08T03:48:51.794Z,15.45
2019-06-08T03:49:57.131Z,15.45
2019-06-08T03:50:52.769Z,15.43
2019-06-08T03:51:51.725Z,15.43
2019-06-08T03:52:51.716Z,15.43
2019-06-08T03:53:51.747Z,15.42
2019-06-08T03:54:51.705Z,15.42
2019-06-08T03:55:51.702Z,15.42
2019-06-08T03:56:51.671Z,15.42
2019-06-08T03:57:51.654Z,15.42
2019-06-08T03:58:51.678Z,15.45
2019-06-08T03:59:51.656Z,15.45
2019-06-08T04:00:51.635Z,15.41
2019-06-08T04:01:51.615Z,15.41
2019-06-08T04:02:51.602Z,15.41
2019-06-08T04:03:51.585Z,15.39
2019-06-08T04:04:51.614Z,15.39
2019-06-08T04:05:51.591Z,15.39
2019-06-08T04:06:51.560Z,15.38
2019-06-08T04:07:51.540Z,15.38
2019-06-08T04:08:51.545Z,15.39
2019-06-08T04:09:51.551Z,15.39
2019-06-08T04:10:51.528Z,15.39
2019-06-08T04:11:51.563Z,15.38
2019-06-08T04:12:51.541Z,15.36
2019-06-08T04:13:51.492Z,15.36
2019-06-08T04:14:51.565Z,15.38
2019-06-08T04:15:51.455Z,15.36
2019-06-08T04:16:51.436Z,15.36
2019-06-08T04:17:51.448Z,15.38
2019-06-08T04:18:51.416Z,15.38
2019-06-08T04:20:09.713Z,15.36
2019-06-08T04:20:52.425Z,15.38
2019-06-08T04:21:51.421Z,15.35
2019-06-08T04:22:51.376Z,15.35
2019-06-08T04:23:51.376Z,15.33
2019-06-08T04:24:51.383Z,15.33
2019-06-08T04:25:51.377Z,15.31
2019-06-08T04:26:51.334Z,15.31
2019-06-08T04:27:51.335Z,15.33
2019-06-08T04:28:51.305Z,15.36
2019-06-08T04:29:51.339Z,15.36
2019-06-08T04:30:51.339Z,15.35
2019-06-08T04:31:51.294Z,15.33
2019-06-08T04:32:51.313Z,15.33
2019-06-08T04:33:51.265Z,15.33
2019-06-08T04:34:51.275Z,15.31
2019-06-08T04:35:51.255Z,15.35
2019-06-08T04:36:51.236Z,15.35
2019-06-08T04:37:51.226Z,15.36
2019-06-08T04:38:51.247Z,15.36
2019-06-08T04:39:51.215Z,15.36
2019-06-08T04:40:51.178Z,15.36
2019-06-08T04:41:51.177Z,15.38
2019-06-08T04:42:51.228Z,15.35
2019-06-08T04:43:51.155Z,15.36
2019-06-08T04:44:51.145Z,15.36
2019-06-08T04:45:51.116Z,15.38
2019-06-08T04:46:51.144Z,15.36
2019-06-08T04:47:51.106Z,15.35
2019-06-08T04:48:51.105Z,15.35
2019-06-08T04:49:51.119Z,15.35
2019-06-08T04:50:51.087Z,15.35
2019-06-08T04:51:51.099Z,15.36
2019-06-08T04:52:51.054Z,15.35
2019-06-08T04:53:51.051Z,15.36
2019-06-08T04:54:51.026Z,15.36
2019-06-08T04:55:51.084Z,15.36
2019-06-08T04:56:51.006Z,15.35
2019-06-08T04:57:51.085Z,15.36
2019-06-08T04:58:51.498Z,15.38
2019-06-08T04:59:50.983Z,15.39
2019-06-08T05:00:51.160Z,15.41
2019-06-08T05:01:50.936Z,15.41
2019-06-08T05:02:51.339Z,15.39
2019-06-08T05:03:50.947Z,15.41
2019-06-08T05:04:50.979Z,15.41
2019-06-08T05:05:50.910Z,15.39
2019-06-08T05:06:50.896Z,15.38
2019-06-08T05:07:50.890Z,15.38
2019-06-08T05:08:50.887Z,15.36
2019-06-08T05:09:50.878Z,15.33
2019-06-08T05:10:50.877Z,15.35
2019-06-08T05:11:50.830Z,15.36
2019-06-08T05:12:50.816Z,15.35
2019-06-08T05:13:50.813Z,15.36
2019-06-08T05:14:50.799Z,15.35
2019-06-08T05:15:50.809Z,15.35
2019-06-08T05:16:50.789Z,15.35
2019-06-08T05:17:50.769Z,15.36
2019-06-08T05:18:50.773Z,15.35
2019-06-08T05:19:50.747Z,15.35
2019-06-08T05:20:51.769Z,15.33
2019-06-08T05:21:50.729Z,15.33
2019-06-08T05:22:50.697Z,15.33
2019-06-08T05:23:58.208Z,15.35
2019-06-08T05:24:51.703Z,15.33
2019-06-08T05:25:50.735Z,15.35
2019-06-08T05:26:50.776Z,15.38
2019-06-08T05:27:50.667Z,15.36
2019-06-08T05:28:50.709Z,15.38
2019-06-08T05:29:50.643Z,15.36
2019-06-08T05:30:50.649Z,15.36
2019-06-08T05:31:50.606Z,15.31
2019-06-08T05:32:50.607Z,15.31
2019-06-08T05:33:50.586Z,15.30
2019-06-08T05:34:50.573Z,15.30
2019-06-08T05:35:50.630Z,15.28
2019-06-08T05:36:50.558Z,15.30
2019-06-08T05:37:50.576Z,15.31
2019-06-08T05:38:50.535Z,15.31
2019-06-08T05:39:50.526Z,15.31
2019-06-08T05:40:50.515Z,15.33
2019-06-08T05:41:50.518Z,15.30
2019-06-08T05:42:50.483Z,15.33
2019-06-08T05:43:50.466Z,15.33
2019-06-08T05:44:50.476Z,15.33
2019-06-08T05:45:50.455Z,15.33
2019-06-08T05:46:50.463Z,15.36
2019-06-08T05:47:50.427Z,15.36
2019-06-08T05:48:50.554Z,15.38
2019-06-08T05:49:50.407Z,15.39
2019-06-08T05:51:02.743Z,15.39
2019-06-08T05:51:51.403Z,15.41
2019-06-08T05:52:50.451Z,15.42
2019-06-08T05:53:50.366Z,15.43
2019-06-08T05:54:50.356Z,15.43
2019-06-08T05:55:50.347Z,15.41
2019-06-08T05:56:50.560Z,15.39
2019-06-08T05:57:50.590Z,15.41
2019-06-08T05:58:50.514Z,15.39
2019-06-08T05:59:50.482Z,15.39
2019-06-08T06:00:50.634Z,15.42
2019-06-08T06:01:50.977Z,15.42
2019-06-08T06:02:58.015Z,15.43
2019-06-08T06:03:58.036Z,15.42
2019-06-08T06:04:52.175Z,15.46
2019-06-08T06:05:50.772Z,15.48
2019-06-08T06:06:50.924Z,15.49
2019-06-08T06:07:51.238Z,15.52
2019-06-08T06:08:50.975Z,15.54
2019-06-08T06:09:51.129Z,15.57
2019-06-08T06:10:51.359Z,15.60
2019-06-08T06:11:51.181Z,15.59
2019-06-08T06:12:51.178Z,15.56
2019-06-08T06:13:51.337Z,15.54
2019-06-08T06:14:51.250Z,15.52
2019-06-08T06:15:51.709Z,15.54
2019-06-08T06:16:51.212Z,15.52
2019-06-08T06:17:51.428Z,15.54
2019-06-08T06:18:52.218Z,15.57
2019-06-08T06:19:51.392Z,15.59
2019-06-08T06:20:51.408Z,15.61
2019-06-08T06:21:51.401Z,15.64
2019-06-08T06:22:52.469Z,15.67
2019-06-08T06:23:51.403Z,15.70
2019-06-08T06:24:50.046Z,15.74
2019-06-08T06:25:50.118Z,15.74
2019-06-08T06:26:50.465Z,15.79
2019-06-08T06:27:50.029Z,15.81
2019-06-08T06:28:50.036Z,15.82
2019-06-08T06:29:50.024Z,15.82
2019-06-08T06:30:50.246Z,15.81
2019-06-08T06:31:50.097Z,15.79
2019-06-08T06:32:50.255Z,15.78
2019-06-08T06:33:50.133Z,15.78
2019-06-08T06:34:50.030Z,15.78
2019-06-08T06:35:50.047Z,15.81
2019-06-08T06:36:49.968Z,15.79
2019-06-08T06:37:52.031Z,15.79
2019-06-08T06:38:50.175Z,15.79
2019-06-08T06:39:50.140Z,15.81
2019-06-08T06:40:50.093Z,15.84
2019-06-08T06:41:49.997Z,15.81
2019-06-08T06:42:50.079Z,15.85
2019-06-08T06:43:50.396Z,15.86
2019-06-08T06:44:50.586Z,15.86
2019-06-08T06:45:50.008Z,15.78
2019-06-08T06:46:50.207Z,15.76
2019-06-08T06:47:50.444Z,15.79
2019-06-08T06:48:50.380Z,15.82
2019-06-08T06:49:50.645Z,15.85
2019-06-08T06:50:50.417Z,15.86
2019-06-08T06:51:50.536Z,15.92
2019-06-08T06:52:50.777Z,15.89
2019-06-08T06:53:50.858Z,15.93
2019-06-08T06:54:51.139Z,15.97
2019-06-08T06:55:50.977Z,16.00
2019-06-08T06:56:49.666Z,16.03
2019-06-08T06:57:49.675Z,16.06
2019-06-08T06:58:49.637Z,16.07
2019-06-08T06:59:49.619Z,16.07
2019-06-08T07:00:49.617Z,16.09
2019-06-08T07:01:53.643Z,16.11
2019-06-08T07:02:51.732Z,16.15
2019-06-08T07:03:50.143Z,16.18
2019-06-08T07:04:49.960Z,16.22
2019-06-08T07:05:49.985Z,16.20
2019-06-08T07:06:50.128Z,16.11
2019-06-08T07:07:50.237Z,16.07
2019-06-08T07:08:50.324Z,16.03
2019-06-08T07:09:50.496Z,16.06
2019-06-08T07:10:50.800Z,16.11
2019-06-08T07:11:50.876Z,16.12
2019-06-08T07:12:50.823Z,16.15
2019-06-08T07:13:50.800Z,16.18
2019-06-08T07:14:49.476Z,16.20
2019-06-08T07:15:53.726Z,16.20
2019-06-08T07:16:50.446Z,16.16
2019-06-08T07:17:50.107Z,16.12
2019-06-08T07:18:50.238Z,16.12
2019-06-08T07:19:50.430Z,16.12
2019-06-08T07:20:50.253Z,16.14
2019-06-08T07:21:50.306Z,16.16
2019-06-08T07:22:50.220Z,16.23
2019-06-08T07:23:50.855Z,16.25
2019-06-08T07:24:50.287Z,16.26
2019-06-08T07:25:50.442Z,16.27
2019-06-08T07:26:50.432Z,16.27
2019-06-08T07:27:50.497Z,16.31
2019-06-08T07:28:49.907Z,16.31
2019-06-08T07:29:50.510Z,16.34
2019-06-08T07:30:50.633Z,16.35
2019-06-08T07:31:50.334Z,16.38
2019-06-08T07:32:49.287Z,16.38
2019-06-08T07:33:51.510Z,16.41
2019-06-08T07:34:50.439Z,16.44
2019-06-08T07:35:49.977Z,16.49
2019-06-08T07:36:49.765Z,16.52
2019-06-08T07:37:50.575Z,16.58
2019-06-08T07:38:49.983Z,16.62
2019-06-08T07:39:50.041Z,16.68
2019-06-08T07:40:49.949Z,16.71
2019-06-08T07:41:50.217Z,16.75
2019-06-08T07:42:49.707Z,16.77
2019-06-08T07:43:49.661Z,16.75
2019-06-08T07:44:49.178Z,16.80
2019-06-08T07:45:49.858Z,16.86
2019-06-08T07:46:49.564Z,16.85
2019-06-08T07:47:49.935Z,16.86
2019-06-08T07:48:50.285Z,16.89
2019-06-08T07:49:49.338Z,16.81
2019-06-08T07:50:50.252Z,16.83
2019-06-08T07:51:58.681Z,16.88
2019-06-08T07:52:51.318Z,16.89
2019-06-08T07:53:49.853Z,16.89
2019-06-08T07:54:49.732Z,16.88
2019-06-08T07:55:50.091Z,16.89
2019-06-08T07:56:50.076Z,16.90
2019-06-08T07:57:50.444Z,16.93
2019-06-08T07:58:50.130Z,16.92
2019-06-08T07:59:50.252Z,16.89
2019-06-08T08:00:50.421Z,16.83
2019-06-08T08:01:49.866Z,16.83
2019-06-08T08:02:50.109Z,16.77
2019-06-08T08:03:49.920Z,16.80
2019-06-08T08:04:50.134Z,16.81
2019-06-08T08:05:50.280Z,16.81
2019-06-08T08:06:50.312Z,16.85
2019-06-08T08:07:50.202Z,16.88
2019-06-08T08:08:48.851Z,16.92
2019-06-08T08:09:48.880Z,16.95
2019-06-08T08:10:48.901Z,16.93
2019-06-08T08:11:48.837Z,16.92
2019-06-08T08:12:49.235Z,16.93
2019-06-08T08:13:50.162Z,16.98
2019-06-08T08:14:48.818Z,16.98
2019-06-08T08:15:49.061Z,17.04
2019-06-08T08:16:48.940Z,17.10
2019-06-08T08:17:49.080Z,17.14
2019-06-08T08:18:49.054Z,17.20
2019-06-08T08:19:48.996Z,17.26
2019-06-08T08:20:49.474Z,17.32
2019-06-08T08:21:51.896Z,17.35
2019-06-08T08:22:52.618Z,17.38
2019-06-08T08:23:50.636Z,17.43
2019-06-08T08:24:53.413Z,17.48
2019-06-08T08:25:50.447Z,17.48
2019-06-08T08:26:50.852Z,17.48
2019-06-08T08:27:50.238Z,17.44
2019-06-08T08:28:50.395Z,17.46
2019-06-08T08:29:48.984Z,17.47
2019-06-08T08:30:50.569Z,17.54
2019-06-08T08:31:50.275Z,17.63
2019-06-08T08:32:50.790Z,17.71
2019-06-08T08:33:50.083Z,17.82
2019-06-08T08:34:50.345Z,17.91
2019-06-08T08:35:50.576Z,17.95
2019-06-08T08:36:50.585Z,17.97
2019-06-08T08:37:53.634Z,17.94
2019-06-08T08:38:51.551Z,17.94
2019-06-08T08:39:50.118Z,17.99
2019-06-08T08:40:50.095Z,17.99
2019-06-08T08:41:53.623Z,17.99
2019-06-08T08:42:50.617Z,17.92
2019-06-08T08:43:51.308Z,17.94
2019-06-08T08:44:49.820Z,17.91
2019-06-08T08:45:49.693Z,17.88
2019-06-08T08:46:50.066Z,17.87
2019-06-08T08:47:48.587Z,17.82
2019-06-08T08:48:48.676Z,17.69
2019-06-08T08:49:48.408Z,17.66
2019-06-08T08:50:48.461Z,17.66
2019-06-08T08:51:48.391Z,17.63
2019-06-08T08:52:48.373Z,17.55
2019-06-08T08:53:53.851Z,17.53
2019-06-08T08:54:50.755Z,17.50
2019-06-08T08:55:48.381Z,17.55
2019-06-08T08:56:52.197Z,17.63
2019-06-08T08:57:50.716Z,17.70
2019-06-08T08:58:48.334Z,17.76
2019-06-08T08:59:51.818Z,17.81
2019-06-08T09:00:50.930Z,17.84
2019-06-08T09:01:48.388Z,17.81
2019-06-08T09:02:50.196Z,17.78
2019-06-08T09:03:51.854Z,17.76
2019-06-08T09:04:50.623Z,17.78
2019-06-08T09:05:48.422Z,17.78
2019-06-08T09:06:48.419Z,17.82
2019-06-08T09:07:48.393Z,17.91
2019-06-08T09:08:48.500Z,17.92
2019-06-08T09:09:48.349Z,18.03
2019-06-08T09:10:48.207Z,18.09
2019-06-08T09:11:48.549Z,18.15
2019-06-08T09:12:48.656Z,18.22
2019-06-08T09:13:48.803Z,18.29
2019-06-08T09:14:48.315Z,18.33
2019-06-08T09:15:48.218Z,18.31
2019-06-08T09:16:48.283Z,18.29
2019-06-08T09:17:48.359Z,18.31
2019-06-08T09:18:48.109Z,18.25
2019-06-08T09:19:48.228Z,18.28
2019-06-08T09:20:48.076Z,18.28
2019-06-08T09:21:48.276Z,18.34
2019-06-08T09:22:56.560Z,18.37
2019-06-08T09:23:49.022Z,18.37
2019-06-08T09:24:48.586Z,18.43
2019-06-08T09:25:48.464Z,18.49
2019-06-08T09:26:48.017Z,18.58
2019-06-08T09:27:48.411Z,18.58
2019-06-08T09:28:47.988Z,18.59
2019-06-08T09:29:48.300Z,18.70
2019-06-08T09:30:48.390Z,18.70
2019-06-08T09:31:49.091Z,18.67
2019-06-08T09:32:48.031Z,18.64
2019-06-08T09:33:55.158Z,18.55
2019-06-08T09:34:48.919Z,18.43
2019-06-08T09:35:48.106Z,18.43
2019-06-08T09:36:48.285Z,18.44
2019-06-08T09:37:48.611Z,18.40
2019-06-08T09:38:48.006Z,18.29
2019-06-08T09:39:48.339Z,18.31
2019-06-08T09:40:48.919Z,18.27
2019-06-08T09:41:48.083Z,18.34
2019-06-08T09:42:47.827Z,18.44
2019-06-08T09:43:48.699Z,18.61
2019-06-08T09:44:48.383Z,18.70
2019-06-08T09:45:48.416Z,18.82
2019-06-08T09:46:48.173Z,18.91
2019-06-08T09:47:47.949Z,18.98
2019-06-08T09:48:48.664Z,19.08
2019-06-08T09:49:48.091Z,19.14
2019-06-08T09:50:48.668Z,19.13
2019-06-08T09:51:48.627Z,19.06
2019-06-08T09:52:48.001Z,19.11
2019-06-08T09:53:47.779Z,19.13
2019-06-08T09:54:48.143Z,19.05
2019-06-08T09:55:48.288Z,19.05
2019-06-08T09:56:47.936Z,19.11
2019-06-08T09:57:48.500Z,19.20
2019-06-08T09:58:48.813Z,19.24
2019-06-08T09:59:48.265Z,19.21
2019-06-08T10:00:48.641Z,19.13
2019-06-08T10:01:47.623Z,19.14
2019-06-08T10:02:47.931Z,19.14
2019-06-08T10:03:48.213Z,19.13
2019-06-08T10:04:48.412Z,19.10
2019-06-08T10:05:48.390Z,19.13
2019-06-08T10:06:48.050Z,19.17
2019-06-08T10:07:48.753Z,19.24
2019-06-08T10:08:48.074Z,19.28
2019-06-08T10:09:49.998Z,19.35
2019-06-08T10:10:48.372Z,19.36
2019-06-08T10:11:47.518Z,19.39
2019-06-08T10:12:48.433Z,19.40
2019-06-08T10:13:47.919Z,19.51
2019-06-08T10:14:49.010Z,19.58
2019-06-08T10:15:51.161Z,19.66
2019-06-08T10:16:47.848Z,19.73
2019-06-08T10:17:47.731Z,19.75
2019-06-08T10:18:51.109Z,19.86
2019-06-08T10:19:47.719Z,19.93
2019-06-08T10:20:48.191Z,20.00
2019-06-08T10:21:48.184Z,20.05
2019-06-08T10:22:50.016Z,20.08
2019-06-08T10:23:48.376Z,20.13
2019-06-08T10:24:49.001Z,20.20
2019-06-08T10:25:48.149Z,20.24
2019-06-08T10:26:47.875Z,20.24
2019-06-08T10:27:47.333Z,20.24
2019-06-08T10:28:48.244Z,20.27
2019-06-08T10:29:48.363Z,20.35
2019-06-08T10:30:48.520Z,20.41
2019-06-08T10:31:48.348Z,20.39
2019-06-08T10:32:47.983Z,20.39
2019-06-08T10:33:48.202Z,20.28
2019-06-08T10:34:48.090Z,20.18
2019-06-08T10:35:48.023Z,20.18
2019-06-08T10:36:47.250Z,20.18
2019-06-08T10:37:47.866Z,20.12
2019-06-08T10:38:47.969Z,20.12
2019-06-08T10:39:47.848Z,20.08
2019-06-08T10:40:48.243Z,20.05
2019-06-08T10:41:48.868Z,20.03
2019-06-08T10:42:48.296Z,19.93
2019-06-08T10:43:48.179Z,19.87
2019-06-08T10:44:47.126Z,19.72
2019-06-08T10:45:48.280Z,19.65
2019-06-08T10:46:48.248Z,19.70
2019-06-08T10:47:47.911Z,19.73
2019-06-08T10:48:48.652Z,19.78
2019-06-08T10:49:48.941Z,19.83
2019-06-08T10:50:47.489Z,19.90
2019-06-08T10:51:48.737Z,19.98
2019-06-08T10:52:47.050Z,20.00
2019-06-08T10:53:52.601Z,20.05
2019-06-08T10:54:48.015Z,20.12
2019-06-08T10:55:48.199Z,20.16
2019-06-08T10:56:48.597Z,20.23
2019-06-08T10:57:47.766Z,20.16
2019-06-08T10:58:49.428Z,20.18
2019-06-08T10:59:48.621Z,20.05
2019-06-08T11:00:48.111Z,19.91
2019-06-08T11:01:46.960Z,19.94
2019-06-08T11:02:48.877Z,19.93
2019-06-08T11:03:48.942Z,19.88
2019-06-08T11:04:48.381Z,19.83
2019-06-08T11:05:48.299Z,19.73
2019-06-08T11:06:47.846Z,19.73
2019-06-08T11:07:48.010Z,19.68
2019-06-08T11:08:46.856Z,19.63
2019-06-08T11:09:48.153Z,19.66
2019-06-08T11:10:47.493Z,19.70
2019-06-08T11:11:48.069Z,19.75
2019-06-08T11:12:48.538Z,19.79
2019-06-08T11:13:50.101Z,19.84
2019-06-08T11:14:48.137Z,19.83
2019-06-08T11:15:48.093Z,19.83
2019-06-08T11:16:47.579Z,19.79
2019-06-08T11:17:46.774Z,19.86
2019-06-08T11:18:50.830Z,19.93
2019-06-08T11:19:48.016Z,19.98
2019-06-08T11:20:47.901Z,19.95
2019-06-08T11:21:48.214Z,19.90
2019-06-08T11:22:49.872Z,19.88
2019-06-08T11:24:04.493Z,19.93
2019-06-08T11:24:48.543Z,20.00
2019-06-08T11:25:48.790Z,20.06
2019-06-08T11:26:47.843Z,19.95
2019-06-08T11:27:47.524Z,19.93
2019-06-08T11:29:38.328Z,19.90
2019-06-08T11:30:38.279Z,19.94
2019-06-08T11:31:39.028Z,20.00
2019-06-08T11:32:38.350Z,20.10
2019-06-08T11:33:38.778Z,20.18
2019-06-08T11:34:37.717Z,20.21
2019-06-08T11:35:38.370Z,20.27
2019-06-08T11:36:39.070Z,20.31
2019-06-08T11:37:38.752Z,20.41
2019-06-08T11:38:38.238Z,20.43
2019-06-08T11:39:38.182Z,20.34
2019-06-08T11:40:37.888Z,20.34
2019-06-08T11:41:36.284Z,20.33
2019-06-08T11:42:38.643Z,20.30
2019-06-08T11:43:38.111Z,20.30
2019-06-08T11:44:38.770Z,20.25
2019-06-08T11:45:37.961Z,20.21
2019-06-08T11:46:38.376Z,20.05
2019-06-08T11:47:38.931Z,19.94
2019-06-08T11:48:39.287Z,19.87
2019-06-08T11:49:37.214Z,19.76
2019-06-08T11:50:41.454Z,19.73
2019-06-08T11:51:37.840Z,19.72
2019-06-08T11:52:38.255Z,19.70
2019-06-08T11:53:38.477Z,19.70
2019-06-08T11:54:38.031Z,19.70
2019-06-08T11:55:38.358Z,19.72
2019-06-08T11:56:39.976Z,19.75
2019-06-08T11:57:37.393Z,19.78
2019-06-08T11:58:38.162Z,19.79
2019-06-08T11:59:37.540Z,19.84
2019-06-08T12:00:37.895Z,19.83
2019-06-08T12:01:36.064Z,19.84
2019-06-08T12:02:38.783Z,19.80
2019-06-08T12:03:38.754Z,19.78
2019-06-08T12:04:38.263Z,19.75
2019-06-08T12:05:36.054Z,19.73
2019-06-08T12:06:37.737Z,19.72
2019-06-08T12:07:38.072Z,19.72
2019-06-08T12:08:38.030Z,19.75
2019-06-08T12:09:36.017Z,19.78
2019-06-08T12:10:38.205Z,19.83
2019-06-08T12:11:38.287Z,19.87
2019-06-08T12:12:38.344Z,19.87
2019-06-08T12:13:35.966Z,19.86
2019-06-08T12:14:37.651Z,19.88
2019-06-08T12:15:38.452Z,19.91
2019-06-08T12:16:37.828Z,19.93
2019-06-08T12:17:35.928Z,19.95
2019-06-08T12:18:40.045Z,20.00
2019-06-08T12:19:37.751Z,20.05
2019-06-08T12:20:37.689Z,20.13
2019-06-08T12:21:35.867Z,20.18
2019-06-08T12:22:37.670Z,20.25
2019-06-08T12:23:35.827Z,20.27
2019-06-08T12:24:41.981Z,20.23
2019-06-08T12:25:37.847Z,20.20
2019-06-08T12:26:35.855Z,20.21
2019-06-08T12:27:37.264Z,20.25
2019-06-08T12:28:38.056Z,20.28
2019-06-08T12:29:35.767Z,20.35
2019-06-08T12:30:35.747Z,20.42
2019-06-08T12:31:37.759Z,20.53
2019-06-08T12:32:35.737Z,20.64
2019-06-08T12:33:35.731Z,20.71
2019-06-08T12:34:38.212Z,20.77
2019-06-08T12:35:35.724Z,20.79
2019-06-08T12:36:37.564Z,20.74
2019-06-08T12:37:35.678Z,20.68
2019-06-08T12:38:37.929Z,20.62
2019-06-08T12:39:35.649Z,20.53
2019-06-08T12:40:38.318Z,20.50
2019-06-08T12:41:37.737Z,20.53
2019-06-08T12:42:38.004Z,20.58
2019-06-08T12:43:35.614Z,20.64
2019-06-08T12:44:38.104Z,20.66
2019-06-08T12:45:37.985Z,20.68
2019-06-08T12:46:40.855Z,20.72
2019-06-08T12:47:38.168Z,20.71
2019-06-08T12:48:35.559Z,20.74
2019-06-08T12:49:38.183Z,20.77
2019-06-08T12:50:35.600Z,20.84
2019-06-08T12:51:35.608Z,20.90
2019-06-08T12:52:35.509Z,20.95
2019-06-08T12:53:35.500Z,20.98